createdAt,value
2022-10-22T03:57:28.492Z,48.30
2022-10-22T04:00:52.115Z,50.20
2022-10-22T04:04:15.510Z,46.80
2022-10-22T04:07:39.336Z,54.50
2022-10-22T04:11:03.101Z,50.50
2022-10-22T04:14:26.424Z,54.00
2022-10-22T04:17:49.692Z,53.10
2022-10-22T04:21:14.539Z,53.00
2022-10-22T04:24:38.409Z,68.70
2022-10-22T04:28:01.805Z,63.00
2022-10-22T04:31:26.419Z,69.20
2022-10-22T04:34:49.599Z,95.60
2022-10-22T04:38:13.951Z,82.70
2022-10-22T04:41:39.268Z,88.30
2022-10-22T04:45:02.504Z,91.10
2022-10-22T04:48:25.953Z,80.20
2022-10-22T04:51:49.078Z,98.00
2022-10-22T04:55:12.640Z,122.90
2022-10-22T04:58:35.889Z,86.40
2022-10-22T05:01:59.885Z,93.60
2022-10-22T05:05:23.877Z,113.20
2022-10-22T05:08:48.132Z,120.90
2022-10-22T05:12:12.212Z,87.40
2022-10-22T05:15:36.046Z,106.00
2022-10-22T05:19:00.789Z,102.70
2022-10-22T05:22:24.330Z,104.00
2022-10-22T05:25:47.690Z,127.80
2022-10-22T05:29:11.569Z,110.90
2022-10-22T05:32:36.080Z,140.60
2022-10-22T05:35:59.829Z,106.20
2022-10-22T05:39:23.412Z,136.10
2022-10-22T05:42:46.976Z,121.60
2022-10-22T05:46:12.913Z,124.50
2022-10-22T05:49:36.328Z,126.70
2022-10-22T05:52:59.759Z,110.10
2022-10-22T05:56:24.087Z,138.90
2022-10-22T05:59:48.096Z,119.00
2022-10-22T06:03:11.301Z,135.10
2022-10-22T06:06:37.222Z,124.50
2022-10-22T06:10:01.721Z,121.20
2022-10-22T06:13:25.814Z,136.90
2022-10-22T06:16:49.750Z,122.90
2022-10-22T06:20:14.653Z,168.10
2022-10-22T06:23:39.048Z,150.60
2022-10-22T06:27:02.369Z,155.00
2022-10-22T06:30:25.880Z,153.40
2022-10-22T06:33:49.092Z,138.20
2022-10-22T06:37:13.334Z,105.00
2022-10-22T06:40:36.483Z,122.30
2022-10-22T06:50:00.328Z,118.00
2022-10-22T06:53:27.310Z,102.90
2022-10-22T06:56:54.138Z,108.10
2022-10-22T07:00:22.381Z,85.10
2022-10-22T07:03:51.242Z,82.90
2022-10-22T07:07:17.846Z,84.20
2022-10-22T07:10:44.454Z,76.40
2022-10-22T07:14:11.437Z,88.50
2022-10-22T07:21:08.952Z,78.10
2022-10-22T07:24:35.821Z,86.00
2022-10-22T07:28:02.570Z,91.70
2022-10-22T07:31:30.354Z,83.80
2022-10-22T07:34:57.191Z,74.80
2022-10-22T07:38:24.091Z,68.90
2022-10-22T07:41:50.840Z,75.50
2022-10-22T07:45:17.788Z,70.90
2022-10-22T07:48:44.453Z,72.70
2022-10-22T07:52:11.589Z,67.60
2022-10-22T07:55:39.146Z,70.70
2022-10-22T07:59:06.043Z,66.20
2022-10-22T08:02:32.794Z,63.90
2022-10-22T08:06:00.147Z,82.90
2022-10-22T08:09:26.965Z,68.00
2022-10-22T08:12:53.710Z,65.20
2022-10-22T08:16:20.619Z,64.60
2022-10-22T08:19:47.431Z,62.40
2022-10-22T08:23:14.524Z,64.80
2022-10-22T08:26:42.063Z,59.10
2022-10-22T08:30:10.946Z,53.10
2022-10-22T08:33:39.084Z,48.50
2022-10-22T08:37:08.547Z,47.80
2022-10-22T08:40:39.408Z,42.00
2022-10-22T08:44:17.857Z,46.90
2022-10-22T08:47:59.018Z,41.90
2022-10-22T08:51:28.333Z,39.50
2022-10-22T08:54:58.238Z,43.50
2022-10-22T09:01:55.540Z,39.10
2022-10-22T09:05:34.960Z,40.40
2022-10-22T09:09:03.751Z,40.00
2022-10-22T09:12:30.901Z,38.30
2022-10-22T09:16:01.591Z,37.80
2022-10-22T09:19:36.090Z,36.30
2022-10-22T09:23:27.387Z,39.00
2022-10-22T09:26:54.263Z,40.60
2022-10-22T09:30:22.979Z,42.40
2022-10-22T09:33:51.934Z,52.00
2022-10-22T09:37:20.396Z,44.80
2022-10-22T09:40:49.885Z,42.50
2022-10-22T09:44:16.698Z,45.10
2022-10-22T09:48:01.081Z,45.70
2022-10-22T09:51:42.373Z,44.60
2022-10-22T09:55:17.909Z,44.70
2022-10-22T09:58:51.356Z,44.10
2022-10-22T10:02:37.408Z,46.80
2022-10-22T10:06:07.416Z,47.20
2022-10-22T10:09:36.424Z,51.80
2022-10-22T10:13:11.647Z,48.50
2022-10-22T10:16:49.284Z,47.40
2022-10-22T10:20:34.676Z,45.70
2022-10-22T10:24:11.943Z,53.20
2022-10-22T10:27:42.320Z,49.10
2022-10-22T10:31:18.709Z,50.10
2022-10-22T10:34:53.037Z,52.40
2022-10-22T10:38:34.158Z,57.70
2022-10-22T10:42:07.988Z,48.80
2022-10-22T10:45:44.748Z,51.70
2022-10-22T10:49:18.236Z,44.30
2022-10-22T10:52:56.442Z,43.90
2022-10-22T10:56:39.091Z,42.40
2022-10-22T11:00:11.044Z,44.70
2022-10-22T11:04:07.520Z,45.50
2022-10-22T11:07:40.628Z,45.60
2022-10-22T11:11:13.936Z,42.20
2022-10-22T11:14:51.983Z,41.90
2022-10-22T11:18:23.680Z,47.20
2022-10-22T11:21:57.578Z,43.10
2022-10-22T11:25:30.199Z,39.00
2022-10-22T11:29:00.225Z,42.50
2022-10-22T11:32:29.347Z,41.80
2022-10-22T11:35:58.616Z,41.10
2022-10-22T11:39:36.592Z,37.70
2022-10-22T11:43:08.644Z,39.10
2022-10-22T11:46:44.834Z,41.40
2022-10-22T11:50:25.367Z,43.80
2022-10-22T11:53:58.667Z,36.40
2022-10-22T11:57:29.854Z,38.30
2022-10-22T12:00:58.055Z,36.00
2022-10-22T12:04:40.806Z,36.40
2022-10-22T12:08:24.306Z,40.20
2022-10-22T12:11:53.449Z,40.10
2022-10-22T12:15:28.138Z,38.60
2022-10-22T12:19:03.072Z,35.90
2022-10-22T12:22:31.933Z,32.50
2022-10-22T12:25:59.467Z,31.90
2022-10-22T12:29:28.562Z,30.60
2022-10-22T12:32:57.091Z,30.40
2022-10-22T12:36:23.924Z,27.30
2022-10-22T12:39:50.668Z,31.10
2022-10-22T12:43:19.941Z,29.80
2022-10-22T12:46:51.758Z,26.90
2022-10-22T12:50:26.717Z,26.20
2022-10-22T12:53:55.441Z,25.50
2022-10-22T12:57:24.297Z,26.00
2022-10-22T13:00:57.323Z,24.00
2022-10-22T13:04:35.061Z,27.00
2022-10-22T13:08:09.984Z,24.40
2022-10-22T13:11:41.849Z,25.20
2022-10-22T13:15:24.436Z,26.10
2022-10-22T13:18:52.261Z,26.40
2022-10-22T13:22:36.334Z,23.50
2022-10-22T13:26:05.965Z,25.90
2022-10-22T13:29:32.526Z,28.80
2022-10-22T13:33:02.070Z,26.60
2022-10-22T13:36:29.150Z,31.90
2022-10-22T13:39:55.780Z,29.20
2022-10-22T13:43:22.830Z,32.50
2022-10-22T13:46:50.036Z,31.30
2022-10-22T13:50:19.744Z,33.20
2022-10-22T13:57:13.392Z,37.50
2022-10-22T14:00:42.101Z,38.70
2022-10-22T14:04:14.637Z,33.60
2022-10-22T14:07:42.224Z,37.30
2022-10-22T14:11:10.879Z,37.50
2022-10-22T14:14:38.476Z,32.60
2022-10-22T14:18:07.257Z,38.70
2022-10-22T14:21:39.568Z,33.50
2022-10-22T14:25:07.133Z,34.30
2022-10-22T14:28:41.053Z,38.10
2022-10-22T14:32:20.192Z,36.40
2022-10-22T14:35:49.201Z,36.50
2022-10-22T14:39:17.799Z,35.30
2022-10-22T14:42:48.866Z,32.40
2022-10-22T14:46:17.963Z,34.30
2022-10-22T14:49:45.624Z,40.80
2022-10-22T14:53:13.752Z,34.60
2022-10-22T14:56:40.542Z,32.10
2022-10-22T15:00:09.912Z,38.40
2022-10-22T15:03:37.133Z,37.10
2022-10-22T15:07:03.908Z,37.10
2022-10-22T15:10:30.658Z,37.10
2022-10-22T15:13:57.259Z,36.10
2022-10-22T15:17:24.127Z,36.60
2022-10-22T15:20:57.740Z,33.40
2022-10-22T15:24:24.592Z,33.20
2022-10-22T15:27:52.571Z,33.10
2022-10-22T15:31:47.541Z,34.10
2022-10-22T15:35:14.509Z,39.60
2022-10-22T15:38:41.431Z,67.40
2022-10-22T15:42:08.449Z,44.40
2022-10-22T15:45:35.158Z,41.20
2022-10-22T15:49:01.739Z,44.00
2022-10-22T15:52:28.508Z,69.60
2022-10-22T15:55:55.309Z,49.90
2022-10-22T15:59:22.243Z,45.60
2022-10-22T16:02:48.889Z,50.20
2022-10-22T16:06:15.408Z,56.20
2022-10-22T16:09:42.122Z,46.20
2022-10-22T16:13:08.667Z,45.90
2022-10-22T16:16:39.611Z,56.30
2022-10-22T16:20:07.370Z,54.20
2022-10-22T16:23:34.571Z,51.30
2022-10-22T16:27:01.189Z,49.20
2022-10-22T16:30:27.871Z,52.60
2022-10-22T16:33:54.732Z,57.50
2022-10-22T16:37:21.933Z,52.70
2022-10-22T16:40:49.456Z,56.30
2022-10-22T16:44:16.322Z,51.60
2022-10-22T16:47:45.789Z,48.20
2022-10-22T16:51:16.029Z,61.90
2022-10-22T16:54:42.701Z,51.00
2022-10-22T16:58:09.582Z,48.50
2022-10-22T17:01:40.699Z,52.90
2022-10-22T17:05:09.558Z,52.20
2022-10-22T17:08:36.881Z,54.20
2022-10-22T17:12:03.751Z,54.10
2022-10-22T17:15:30.570Z,62.60
2022-10-22T17:18:58.189Z,52.60
2022-10-22T17:22:25.261Z,57.50
2022-10-22T17:25:58.567Z,58.60
2022-10-22T17:29:27.043Z,58.90
2022-10-22T17:32:54.564Z,52.40
2022-10-22T17:36:22.745Z,50.40
2022-10-22T17:39:50.125Z,54.10
2022-10-22T17:43:16.690Z,46.20
2022-10-22T17:46:45.309Z,53.70
2022-10-22T17:50:13.378Z,53.90
2022-10-22T17:53:45.656Z,53.70
2022-10-22T17:57:13.833Z,58.20
2022-10-22T18:00:40.759Z,50.70
2022-10-22T18:04:09.361Z,51.40
2022-10-22T18:07:36.006Z,47.30
2022-10-22T18:11:06.094Z,127.60
2022-10-22T18:14:32.721Z,186.00
2022-10-22T18:17:59.306Z,235.20
2022-10-22T18:21:28.174Z,144.20
2022-10-22T18:24:54.800Z,107.20
2022-10-22T18:28:21.796Z,89.00
2022-10-22T18:31:49.213Z,77.20
2022-10-22T18:35:16.019Z,97.50
2022-10-22T18:38:43.287Z,68.30
2022-10-22T18:42:10.378Z,64.90
2022-10-22T18:45:37.082Z,83.40
2022-10-22T18:49:04.472Z,119.50
2022-10-22T18:52:31.326Z,70.30
2022-10-22T18:55:57.961Z,57.60
2022-10-22T18:59:26.077Z,59.40
2022-10-22T19:02:52.794Z,58.60
2022-10-22T19:06:26.312Z,57.90
2022-10-22T19:09:53.012Z,63.30
2022-10-22T19:13:23.226Z,65.50
2022-10-22T19:16:50.312Z,65.20
2022-10-22T19:20:17.412Z,68.30
2022-10-22T19:27:16.909Z,75.70
2022-10-22T19:30:44.723Z,70.60
2022-10-22T19:34:12.331Z,73.80
2022-10-22T19:37:39.179Z,76.30
2022-10-22T19:41:06.544Z,76.10
2022-10-22T19:44:33.174Z,81.90
2022-10-22T19:47:59.938Z,70.40
2022-10-22T19:51:29.739Z,74.60
2022-10-22T19:54:56.609Z,69.30
2022-10-22T19:58:23.215Z,62.50
2022-10-22T20:01:49.955Z,63.80
2022-10-22T20:05:16.677Z,62.00
2022-10-22T20:08:43.825Z,66.30
2022-10-22T20:12:10.696Z,65.90
2022-10-22T20:15:37.691Z,69.10
2022-10-22T20:19:06.252Z,71.00
2022-10-22T20:22:32.927Z,69.00
2022-10-22T20:25:59.556Z,75.00
2022-10-22T20:29:26.234Z,80.30
2022-10-22T20:32:53.250Z,77.20
2022-10-22T20:36:22.132Z,115.00
2022-10-22T20:39:49.752Z,260.70
2022-10-22T20:43:16.406Z,174.20
2022-10-22T20:46:43.916Z,408.60
2022-10-22T20:50:13.485Z,261.60
2022-10-22T20:53:40.443Z,274.90
2022-10-22T20:57:07.369Z,413.60
2022-10-22T21:00:36.082Z,331.10
2022-10-22T21:04:03.039Z,574.50
2022-10-22T21:07:29.701Z,584.90
2022-10-22T21:10:56.430Z,495.60
2022-10-22T21:14:24.241Z,736.80
2022-10-22T21:17:51.869Z,998.40
2022-10-22T21:21:20.001Z,586.10
2022-10-22T21:24:46.920Z,477.60
2022-10-22T21:28:13.738Z,499.90
2022-10-22T21:31:41.030Z,460.40
2022-10-22T21:35:08.617Z,517.00
2022-10-22T21:38:35.670Z,246.90
2022-10-22T21:42:02.394Z,267.10
2022-10-22T21:45:29.163Z,337.10
2022-10-22T21:49:01.489Z,298.90
2022-10-22T21:52:28.694Z,282.40
2022-10-22T21:55:55.480Z,322.20
2022-10-22T21:59:22.056Z,335.30
2022-10-22T22:02:48.983Z,228.10
2022-10-22T22:06:21.129Z,299.50
2022-10-22T22:09:49.578Z,383.40
2022-10-22T22:13:17.351Z,355.60
2022-10-22T22:16:44.009Z,206.10
2022-10-22T22:20:12.153Z,203.80
2022-10-22T22:23:42.062Z,279.90
2022-10-22T22:27:09.348Z,272.60
2022-10-22T22:30:36.476Z,257.30
2022-10-22T22:34:04.578Z,410.80
2022-10-22T22:37:31.297Z,336.30
2022-10-22T22:40:59.452Z,398.10
2022-10-22T22:44:26.601Z,507.80
2022-10-22T22:47:53.473Z,605.30
